createdAt,value
2022-08-18T00:02:14.873Z,7.55
2022-08-18T00:04:49.713Z,9.23
2022-08-18T00:07:27.742Z,6.05
2022-08-18T00:09:55.866Z,6.10
2022-08-18T00:12:52.687Z,9.75
2022-08-18T00:15:27.582Z,9.93
2022-08-18T00:17:55.622Z,9.68
2022-08-18T00:20:25.527Z,8.95
2022-08-18T00:22:54.325Z,11.05
2022-08-18T00:25:23.640Z,10.02
2022-08-18T00:27:51.969Z,10.05
2022-08-18T00:30:22.739Z,10.27
2022-08-18T00:32:56.838Z,12.90
2022-08-18T00:35:29.445Z,9.25
2022-08-18T00:38:00.601Z,10.45
2022-08-18T00:40:37.626Z,5.97
2022-08-18T00:43:09.535Z,5.85
2022-08-18T00:45:40.889Z,9.77
2022-08-18T00:48:11.937Z,4.95
2022-08-18T00:50:50.892Z,7.20
2022-08-18T00:53:30.542Z,7.25
2022-08-18T00:56:06.462Z,5.40
2022-08-18T00:59:27.025Z,6.93
2022-08-18T01:02:03.784Z,8.50
2022-08-18T01:04:39.409Z,12.18
2022-08-18T01:07:17.192Z,10.27
2022-08-18T01:09:45.307Z,6.28
2022-08-18T01:12:44.416Z,8.23
2022-08-18T01:15:02.107Z,7.28
2022-08-18T01:17:53.285Z,16.30
2022-08-18T01:20:47.593Z,5.82
2022-08-18T01:23:20.075Z,4.93
2022-08-18T01:26:01.540Z,4.15
2022-08-18T01:28:42.003Z,8.75
2022-08-18T01:31:14.438Z,7.83
2022-08-18T01:33:47.182Z,9.35
2022-08-18T01:36:20.665Z,23.88
2022-08-18T01:38:52.627Z,21.13
2022-08-18T01:41:29.772Z,18.08
2022-08-18T01:44:03.501Z,13.73
2022-08-18T01:46:34.850Z,9.95
2022-08-18T01:49:04.785Z,8.95
2022-08-18T01:51:39.981Z,6.65
2022-08-18T01:54:11.442Z,6.28
2022-08-18T01:56:39.797Z,8.63
2022-08-18T01:59:15.581Z,8.07
2022-08-18T02:01:48.805Z,6.90
2022-08-18T02:04:41.358Z,6.68
2022-08-18T02:07:12.552Z,6.97
2022-08-18T02:12:09.734Z,8.13
2022-08-18T02:14:38.298Z,9.38
2022-08-18T02:17:08.998Z,12.38
2022-08-18T02:19:40.231Z,10.18
2022-08-18T02:24:38.319Z,7.47
2022-08-18T02:27:07.550Z,8.27
2022-08-18T02:29:36.714Z,8.48
2022-08-18T02:32:05.243Z,8.95
2022-08-18T02:34:33.740Z,10.52
2022-08-18T02:37:02.656Z,8.95
2022-08-18T02:39:30.873Z,10.48
2022-08-18T02:41:59.122Z,10.48
2022-08-18T02:44:27.239Z,7.97
2022-08-18T02:46:55.839Z,8.85
2022-08-18T02:49:23.996Z,9.65
2022-08-18T02:51:53.855Z,10.57
2022-08-18T02:54:26.704Z,11.15
2022-08-18T02:56:55.035Z,9.45
2022-08-18T02:59:31.962Z,10.18
2022-08-18T03:02:01.862Z,8.38
2022-08-18T03:04:31.618Z,10.98
2022-08-18T03:07:03.217Z,10.13
2022-08-18T03:09:31.508Z,8.43
2022-08-18T03:12:00.980Z,7.68
2022-08-18T03:14:29.868Z,9.50
2022-08-18T03:16:58.091Z,10.77
2022-08-18T03:19:29.570Z,8.98
2022-08-18T03:22:02.951Z,10.05
2022-08-18T03:24:33.419Z,9.95
2022-08-18T03:27:04.682Z,10.27
2022-08-18T03:32:07.827Z,10.00
2022-08-18T03:34:37.197Z,10.48
2022-08-18T03:37:05.429Z,9.48
2022-08-18T03:39:33.537Z,14.35
2022-08-18T03:42:02.248Z,10.15
2022-08-18T03:44:33.933Z,9.02
2022-08-18T03:47:04.819Z,10.60
2022-08-18T03:49:34.686Z,13.23
2022-08-18T03:52:02.965Z,12.35
2022-08-18T03:54:33.227Z,13.93
2022-08-18T03:57:04.021Z,11.73
2022-08-18T03:59:35.628Z,9.43
2022-08-18T04:02:05.979Z,11.77
2022-08-18T04:04:34.909Z,9.43
2022-08-18T04:07:11.668Z,11.15
2022-08-18T04:09:40.038Z,9.73
2022-08-18T04:12:15.286Z,11.48
2022-08-18T04:14:49.546Z,13.25
2022-08-18T04:17:24.842Z,10.05
2022-08-18T04:19:57.308Z,10.45
2022-08-18T04:22:26.378Z,9.95
2022-08-18T04:24:55.276Z,11.90
2022-08-18T04:27:23.994Z,9.55
2022-08-18T04:29:52.165Z,11.82
2022-08-18T04:32:20.672Z,10.63
2022-08-18T04:34:48.791Z,10.02
2022-08-18T04:37:18.406Z,11.77
2022-08-18T04:39:46.959Z,10.38
2022-08-18T04:42:15.352Z,10.93
2022-08-18T04:44:44.037Z,11.57
2022-08-18T04:47:14.440Z,12.60
2022-08-18T04:49:46.079Z,10.00
2022-08-18T04:52:40.404Z,10.57
2022-08-18T04:55:11.570Z,11.93
2022-08-18T04:57:41.211Z,11.20
2022-08-18T05:00:14.119Z,10.43
2022-08-18T05:02:42.943Z,11.13
2022-08-18T05:05:12.568Z,13.82
2022-08-18T05:07:48.794Z,10.95
2022-08-18T05:10:18.830Z,14.48
2022-08-18T05:12:49.477Z,15.45
2022-08-18T05:15:20.487Z,13.10
2022-08-18T05:17:51.416Z,13.57
2022-08-18T05:20:23.912Z,11.90
2022-08-18T05:22:56.928Z,11.85
2022-08-18T05:25:27.659Z,13.73
2022-08-18T05:27:57.350Z,12.93
2022-08-18T05:30:27.007Z,13.65
2022-08-18T05:32:56.821Z,12.55
2022-08-18T05:35:44.220Z,12.48
2022-08-18T05:38:38.377Z,12.63
2022-08-18T05:41:41.104Z,12.85
2022-08-18T05:44:13.759Z,12.80
2022-08-18T05:46:55.878Z,11.85
2022-08-18T05:49:28.605Z,12.23
2022-08-18T05:52:02.660Z,11.57
2022-08-18T05:54:58.768Z,12.32
2022-08-18T05:57:35.229Z,12.57
2022-08-18T06:00:09.443Z,13.10
2022-08-18T06:02:51.103Z,12.60
2022-08-18T06:05:31.985Z,14.18
2022-08-18T06:08:11.190Z,16.38
2022-08-18T06:13:45.519Z,12.07
2022-08-18T06:16:24.622Z,15.68
2022-08-18T06:19:31.307Z,12.32
2022-08-18T06:22:31.928Z,14.10
2022-08-18T06:25:17.854Z,12.82
2022-08-18T06:28:09.451Z,13.07
2022-08-18T06:33:20.412Z,11.10
2022-08-18T06:35:53.136Z,11.18
2022-08-18T06:39:02.622Z,12.73
2022-08-18T06:41:42.331Z,11.70
2022-08-18T06:44:34.401Z,10.60
2022-08-18T06:47:17.680Z,10.27
2022-08-18T06:50:29.805Z,10.60
2022-08-18T06:53:04.247Z,9.60
2022-08-18T06:55:36.238Z,8.75
2022-08-18T06:58:20.711Z,9.13
2022-08-18T07:00:51.787Z,8.88
2022-08-18T07:03:38.204Z,7.75
2022-08-18T07:06:22.476Z,8.30
2022-08-18T07:08:53.529Z,7.75
2022-08-18T07:11:24.466Z,7.78
2022-08-18T07:16:59.531Z,7.22
2022-08-18T07:19:33.100Z,9.23
2022-08-18T07:22:16.900Z,8.52
2022-08-18T07:24:55.449Z,8.35
2022-08-18T07:27:42.573Z,8.90
2022-08-18T07:30:20.655Z,8.48
2022-08-18T07:33:06.886Z,7.72
2022-08-18T07:35:43.012Z,7.90
2022-08-18T07:38:41.578Z,8.60
2022-08-18T07:41:15.912Z,10.15
2022-08-18T07:44:14.168Z,10.95
2022-08-18T07:47:03.104Z,9.73
2022-08-18T07:49:46.045Z,8.70
2022-08-18T07:53:06.902Z,8.88
2022-08-18T07:55:37.398Z,8.52
2022-08-18T07:58:11.148Z,9.67
2022-08-18T08:01:00.015Z,7.82
2022-08-18T08:03:46.988Z,10.02
2022-08-18T08:06:40.387Z,9.60
2022-08-18T08:09:58.748Z,9.88
2022-08-18T08:12:48.507Z,8.07
2022-08-18T08:15:26.742Z,7.63
2022-08-18T08:18:15.214Z,9.73
2022-08-18T08:20:53.799Z,7.78
2022-08-18T08:23:52.813Z,8.65
2022-08-18T08:26:39.115Z,8.43
2022-08-18T08:29:26.013Z,9.52
2022-08-18T08:32:17.030Z,6.90
2022-08-18T08:37:43.144Z,8.45
2022-08-18T08:40:28.515Z,6.72
2022-08-18T08:43:10.159Z,8.93
2022-08-18T08:45:49.220Z,8.45
2022-08-18T08:48:30.342Z,7.38
2022-08-18T08:51:08.439Z,7.35
2022-08-18T08:53:50.720Z,7.20
2022-08-18T08:56:30.569Z,8.20
2022-08-18T08:59:10.632Z,7.85
2022-08-18T09:01:47.560Z,9.68
2022-08-18T09:04:18.773Z,7.68
2022-08-18T09:07:18.837Z,9.82
2022-08-18T09:09:53.058Z,9.57
2022-08-18T09:12:32.631Z,9.55
2022-08-18T09:15:28.023Z,8.10
2022-08-18T09:18:27.362Z,8.70
2022-08-18T09:21:28.092Z,7.22
2022-08-18T09:24:26.898Z,11.27
2022-08-18T09:27:14.982Z,9.00
2022-08-18T09:29:56.603Z,7.53
2022-08-18T09:32:27.073Z,8.88
2022-08-18T09:35:30.251Z,7.40
2022-08-18T09:38:30.008Z,9.85
2022-08-18T09:41:33.928Z,7.85
2022-08-18T09:44:17.854Z,7.75
2022-08-18T09:46:49.783Z,10.13
2022-08-18T09:49:28.014Z,6.70
2022-08-18T09:52:02.823Z,7.93
2022-08-18T09:54:34.932Z,6.63
2022-08-18T09:57:05.641Z,6.03
2022-08-18T10:02:30.644Z,6.25
2022-08-18T10:05:17.049Z,10.27
2022-08-18T10:07:54.418Z,5.82
2022-08-18T10:11:01.300Z,7.07
2022-08-18T10:13:31.607Z,6.15
2022-08-18T10:16:57.546Z,5.50
2022-08-18T10:19:48.828Z,5.53
2022-08-18T10:22:44.664Z,7.95
2022-08-18T10:25:23.704Z,6.70
2022-08-18T10:27:57.073Z,6.00
2022-08-18T10:30:56.983Z,7.72
2022-08-18T10:34:01.336Z,8.52
2022-08-18T10:37:01.106Z,4.93
2022-08-18T10:39:50.064Z,5.25
2022-08-18T10:45:31.955Z,8.40
2022-08-18T10:48:16.764Z,6.28
2022-08-18T10:51:00.611Z,7.45
2022-08-18T10:53:59.700Z,5.80
2022-08-18T10:56:36.965Z,6.80
2022-08-18T10:59:17.042Z,8.82
2022-08-18T11:02:05.302Z,7.00
2022-08-18T11:04:38.923Z,6.78
2022-08-18T11:07:24.071Z,8.35
2022-08-18T11:13:09.251Z,6.75
2022-08-18T11:16:03.869Z,7.72
2022-08-18T11:18:44.727Z,6.78
2022-08-18T11:21:42.270Z,7.32
2022-08-18T11:24:22.707Z,6.00
2022-08-18T11:27:03.298Z,7.22
2022-08-18T11:29:38.099Z,7.75
2022-08-18T11:32:09.265Z,7.68
2022-08-18T11:34:53.754Z,9.73
2022-08-18T11:37:28.193Z,8.90
2022-08-18T11:41:08.705Z,6.68
2022-08-18T11:43:41.195Z,6.32
2022-08-18T11:46:29.263Z,7.97
2022-08-18T11:48:58.648Z,6.32
2022-08-18T11:51:33.346Z,13.90
2022-08-18T11:54:23.332Z,6.80
2022-08-18T11:57:32.900Z,7.57
2022-08-18T12:00:01.267Z,7.28
2022-08-18T12:02:30.574Z,5.78
2022-08-18T12:05:08.613Z,5.97
2022-08-18T12:07:49.698Z,7.37
2022-08-18T12:10:29.557Z,6.55
2022-08-18T12:13:01.364Z,9.00
2022-08-18T12:15:46.721Z,8.80
2022-08-18T12:18:28.372Z,6.05
2022-08-18T12:21:02.684Z,9.00
2022-08-18T12:23:39.060Z,9.02
2022-08-18T12:26:27.169Z,7.13
2022-08-18T12:29:05.174Z,6.35
2022-08-18T12:31:42.755Z,7.57
2022-08-18T12:37:57.776Z,6.63
2022-08-18T12:40:06.350Z,9.90
2022-08-18T12:42:35.953Z,6.72
2022-08-18T12:45:04.107Z,6.20
2022-08-18T12:47:32.548Z,6.22
2022-08-18T12:50:10.008Z,8.05
2022-08-18T12:52:38.998Z,7.63
2022-08-18T12:55:21.221Z,8.38
2022-08-18T12:57:52.224Z,5.60
2022-08-18T13:00:28.223Z,7.30
2022-08-18T13:02:58.453Z,6.93
2022-08-18T13:05:29.808Z,6.90
2022-08-18T13:08:04.646Z,7.13
2022-08-18T13:10:46.866Z,6.25
2022-08-18T13:13:25.446Z,6.97
2022-08-18T13:26:54.595Z,8.98
2022-08-18T13:29:23.197Z,7.63
2022-08-18T13:31:57.530Z,7.63
2022-08-18T13:34:30.260Z,5.57
2022-08-18T13:36:58.887Z,5.63
2022-08-18T13:39:33.871Z,5.72
2022-08-18T13:42:21.583Z,8.48
2022-08-18T13:44:53.251Z,9.63
2022-08-18T13:47:22.566Z,5.70
2022-08-18T13:49:58.222Z,6.10
2022-08-18T13:52:34.764Z,10.63
2022-08-18T13:55:13.668Z,12.88
2022-08-18T13:57:50.568Z,9.82
2022-08-18T14:00:29.431Z,10.35
2022-08-18T14:02:59.954Z,6.50
2022-08-18T14:05:36.605Z,5.82
2022-08-18T14:08:19.835Z,7.40
2022-08-18T14:10:56.889Z,10.07
2022-08-18T14:13:25.370Z,5.85
2022-08-18T14:15:59.819Z,5.15
2022-08-18T14:18:30.822Z,5.30
2022-08-18T14:21:23.028Z,4.82
2022-08-18T14:24:14.082Z,5.60
2022-08-18T14:26:52.362Z,5.32
2022-08-18T14:29:46.027Z,12.80
2022-08-18T14:32:28.591Z,7.57
2022-08-18T14:36:04.345Z,8.07
2022-08-18T14:37:56.251Z,5.95
2022-08-18T14:40:29.363Z,8.82
2022-08-18T14:42:57.708Z,5.63
2022-08-18T14:45:34.432Z,6.13
2022-08-18T14:48:07.231Z,9.18
2022-08-18T14:50:37.128Z,6.72
2022-08-18T14:53:07.405Z,7.57
2022-08-18T14:55:37.544Z,6.55
2022-08-18T14:58:07.250Z,7.85
2022-08-18T15:00:53.713Z,6.15
2022-08-18T15:03:31.235Z,6.57
2022-08-18T15:06:04.619Z,6.80
2022-08-18T15:08:40.878Z,6.95
2022-08-18T15:11:12.489Z,8.45
2022-08-18T15:13:45.250Z,7.22
2022-08-18T15:16:17.967Z,8.70
2022-08-18T15:18:48.847Z,8.02
2022-08-18T15:21:39.014Z,7.40
2022-08-18T15:24:29.204Z,7.10
2022-08-18T15:27:05.972Z,6.68
2022-08-18T15:29:35.160Z,5.97
2022-08-18T15:32:05.887Z,7.40
2022-08-18T15:34:47.231Z,6.90
2022-08-18T15:37:24.048Z,9.18
2022-08-18T15:40:03.007Z,7.22
2022-08-18T15:42:31.428Z,5.85
2022-08-18T15:45:11.877Z,7.93
2022-08-18T15:47:46.615Z,6.57
2022-08-18T15:50:25.344Z,6.93
2022-08-18T15:53:00.272Z,9.20
2022-08-18T15:55:35.956Z,7.88
2022-08-18T15:58:10.827Z,7.32
2022-08-18T16:00:45.612Z,8.07
2022-08-18T16:03:15.563Z,7.35
2022-08-18T16:05:54.117Z,7.47
2022-08-18T16:08:26.806Z,6.38
2022-08-18T16:10:55.647Z,6.82
2022-08-18T16:13:30.253Z,7.03
2022-08-18T16:15:58.476Z,7.10
2022-08-18T16:18:28.769Z,9.30
2022-08-18T16:20:57.869Z,8.32
2022-08-18T16:23:26.091Z,6.13
2022-08-18T16:25:54.350Z,7.05
2022-08-18T16:28:34.995Z,6.13
2022-08-18T16:31:04.330Z,5.78
2022-08-18T16:33:33.395Z,7.57
2022-08-18T16:36:09.922Z,7.72
2022-08-18T16:38:47.059Z,6.03
2022-08-18T16:41:17.074Z,8.68
2022-08-18T16:43:48.988Z,7.38
2022-08-18T16:46:24.553Z,9.27
2022-08-18T16:48:53.935Z,6.20
2022-08-18T16:51:25.668Z,8.85
2022-08-18T16:53:55.690Z,6.00
2022-08-18T16:56:28.910Z,8.95
2022-08-18T16:59:16.090Z,6.95
2022-08-18T17:02:03.660Z,6.35
2022-08-18T17:04:35.052Z,5.80
2022-08-18T17:07:09.347Z,9.57
2022-08-18T17:09:37.790Z,6.50
2022-08-18T17:12:06.458Z,6.50
2022-08-18T17:14:34.924Z,6.97
2022-08-18T17:17:03.713Z,6.65
2022-08-18T17:19:39.289Z,7.15
2022-08-18T17:22:11.219Z,6.85
2022-08-18T17:24:49.735Z,9.85
2022-08-18T17:27:37.273Z,6.90
2022-08-18T17:30:19.390Z,8.43
2022-08-18T17:32:51.142Z,7.05
2022-08-18T17:35:36.145Z,9.15
2022-08-18T17:38:13.203Z,7.22
2022-08-18T17:40:50.617Z,9.05
2022-08-18T17:43:25.041Z,8.55
2022-08-18T17:46:05.529Z,6.32
2022-08-18T17:48:45.048Z,7.05
2022-08-18T17:51:35.348Z,6.43
2022-08-18T17:54:38.901Z,7.60
2022-08-18T17:57:15.167Z,7.85
2022-08-18T18:00:02.621Z,8.23
2022-08-18T18:02:46.207Z,6.25
2022-08-18T18:05:18.311Z,6.78
2022-08-18T18:07:50.161Z,6.45
2022-08-18T18:10:56.646Z,7.90
2022-08-18T18:13:35.416Z,7.75
2022-08-18T18:16:24.989Z,8.05
2022-08-18T18:19:03.978Z,10.18
2022-08-18T18:21:53.405Z,8.35
2022-08-18T18:24:33.068Z,9.50
2022-08-18T18:27:24.675Z,9.73
2022-08-18T18:29:58.102Z,9.23
2022-08-18T18:33:06.555Z,10.75
2022-08-18T18:35:54.568Z,8.70
2022-08-18T18:38:36.595Z,10.50
2022-08-18T18:41:27.488Z,8.73
2022-08-18T18:44:12.085Z,9.88
2022-08-18T18:47:01.185Z,9.23
2022-08-18T18:49:49.846Z,8.40
2022-08-18T18:52:38.254Z,10.82
2022-08-18T18:55:28.473Z,9.88
2022-08-18T18:58:34.212Z,11.60
2022-08-18T19:01:05.056Z,11.73
2022-08-18T19:03:49.402Z,10.15
2022-08-18T19:06:33.959Z,10.98
2022-08-18T19:09:30.807Z,8.85
2022-08-18T19:12:30.909Z,10.02
2022-08-18T19:15:12.708Z,14.07
2022-08-18T19:17:50.310Z,9.93
2022-08-18T19:20:26.098Z,10.85
2022-08-18T19:23:31.508Z,10.15
2022-08-18T19:26:12.769Z,9.52
2022-08-18T19:29:12.815Z,9.70
2022-08-18T19:32:12.354Z,10.25
2022-08-18T19:34:52.725Z,10.63
2022-08-18T19:40:15.149Z,10.32
2022-08-18T19:42:48.373Z,10.07
2022-08-18T19:45:23.015Z,12.40
2022-08-18T19:48:29.220Z,13.02
2022-08-18T19:51:31.575Z,11.63
2022-08-18T19:54:28.974Z,12.35
2022-08-18T19:57:27.505Z,11.05
2022-08-18T20:00:19.599Z,11.35
2022-08-18T20:03:29.177Z,9.98
2022-08-18T20:06:34.716Z,9.40
2022-08-18T20:09:22.386Z,11.93
2022-08-18T20:12:38.831Z,10.00
2022-08-18T20:15:18.213Z,9.93
2022-08-18T20:18:23.001Z,9.43
2022-08-18T20:21:12.715Z,10.15
2022-08-18T20:24:03.902Z,9.88
2022-08-18T20:26:40.870Z,8.73
2022-08-18T20:29:55.744Z,11.27
2022-08-18T20:32:35.612Z,9.40
2022-08-18T20:35:37.249Z,9.15
2022-08-18T20:38:20.657Z,9.07
2022-08-18T20:40:52.541Z,8.30
2022-08-18T20:43:35.524Z,9.57
2022-08-18T20:46:37.519Z,12.10
2022-08-18T20:49:23.209Z,9.93
2022-08-18T20:52:16.556Z,10.05
2022-08-18T20:55:11.585Z,8.25
2022-08-18T20:57:52.322Z,7.07
2022-08-18T21:00:27.456Z,9.75
2022-08-18T21:03:00.957Z,8.43
2022-08-18T21:05:40.919Z,10.00
2022-08-18T21:08:18.024Z,7.95
2022-08-18T21:10:57.177Z,8.32
2022-08-18T21:13:43.247Z,8.50
2022-08-18T21:16:13.913Z,9.70
2022-08-18T21:19:05.822Z,10.00
2022-08-18T21:21:40.358Z,9.82
2022-08-18T21:24:21.148Z,10.95
2022-08-18T21:26:50.419Z,12.27
2022-08-18T21:29:19.060Z,11.20
2022-08-18T21:31:49.326Z,15.00
2022-08-18T21:34:35.033Z,14.70
2022-08-18T21:37:10.950Z,14.93
2022-08-18T21:39:53.481Z,13.90
2022-08-18T21:42:31.010Z,12.85
2022-08-18T21:45:00.925Z,13.50
2022-08-18T21:47:35.144Z,14.13
2022-08-18T21:50:26.806Z,17.42
2022-08-18T21:53:01.274Z,15.95
2022-08-18T21:55:52.602Z,15.90
2022-08-18T22:04:01.946Z,15.52
2022-08-18T22:06:52.053Z,20.23
2022-08-18T22:09:42.865Z,16.35
2022-08-18T22:12:51.696Z,14.43
2022-08-18T22:15:25.553Z,15.88
2022-08-18T22:18:06.462Z,16.40
2022-08-18T22:20:45.114Z,16.00
2022-08-18T22:23:34.643Z,19.23
2022-08-18T22:26:28.675Z,19.20
2022-08-18T22:29:03.337Z,19.77
2022-08-18T22:31:37.345Z,19.60
2022-08-18T22:34:11.584Z,18.67
2022-08-18T22:36:43.114Z,18.92
2022-08-18T22:39:37.753Z,20.20
2022-08-18T22:42:07.467Z,19.95
2022-08-18T22:44:35.767Z,19.77
2022-08-18T22:47:05.761Z,18.92
2022-08-18T22:49:38.236Z,20.52
2022-08-18T22:52:20.499Z,18.73
2022-08-18T22:57:26.981Z,18.75
2022-08-18T22:59:55.508Z,18.45
2022-08-18T23:04:54.293Z,18.48
2022-08-18T23:07:24.167Z,19.00
2022-08-18T23:09:52.497Z,20.00
2022-08-18T23:12:23.382Z,19.60
2022-08-18T23:14:52.056Z,21.45
2022-08-18T23:17:23.646Z,20.13
2022-08-18T23:19:53.303Z,23.15
2022-08-18T23:22:21.367Z,22.88
2022-08-18T23:24:49.673Z,22.33
2022-08-18T23:27:17.989Z,22.15
2022-08-18T23:29:46.139Z,22.08
2022-08-18T23:32:14.483Z,22.00
2022-08-18T23:34:42.636Z,22.08
2022-08-18T23:37:11.412Z,23.90
2022-08-18T23:39:41.844Z,24.63
2022-08-18T23:42:14.199Z,24.05
2022-08-18T23:44:43.466Z,22.38
2022-08-18T23:47:11.718Z,23.67
2022-08-18T23:49:39.917Z,23.70
2022-08-18T23:52:08.372Z,24.60
2022-08-18T23:54:36.740Z,24.92
2022-08-18T23:57:04.999Z,24.40
2022-08-18T23:59:34.181Z,22.88
